sensor_id;sensor_type;location;lat;lon;timestamp;P1;durP1;ratioP1;P2;durP2;ratioP2
209;SDS011;90;48.810;9.120;2023-03-01T00:00:00;51.60;;;20.25;;
209;SDS011;90;48.810;9.120;2023-03-01T00:02:34;38.50;;;18.23;;
209;SDS011;90;48.810;9.120;2023-03-01T00:05:05;40.75;;;18.55;;
209;SDS011;90;48.810;9.120;2023-03-01T00:07:36;45.25;;;19.13;;
209;SDS011;90;48.810;9.120;2023-03-01T00:10:04;46.47;;;20.15;;
209;SDS011;90;48.810;9.120;2023-03-01T00:12:34;46.20;;;21.02;;
209;SDS011;90;48.810;9.120;2023-03-01T00:15:06;44.22;;;20.17;;
209;SDS011;90;48.810;9.120;2023-03-01T00:17:38;39.00;;;20.48;;
209;SDS011;90;48.810;9.120;2023-03-01T00:20:06;41.45;;;20.80;;
209;SDS011;90;48.810;9.120;2023-03-01T00:22:50;42.53;;;20.75;;
209;SDS011;90;48.810;9.120;2023-03-01T00:25:17;42.83;;;19.15;;
209;SDS011;90;48.810;9.120;2023-03-01T00:27:47;45.53;;;20.20;;
209;SDS011;90;48.810;9.120;2023-03-01T00:30:15;39.83;;;19.35;;
209;SDS011;90;48.810;9.120;2023-03-01T00:32:47;41.03;;;19.83;;
209;SDS011;90;48.810;9.120;2023-03-01T00:35:31;44.58;;;19.42;;
209;SDS011;90;48.810;9.120;2023-03-01T00:38:21;37.20;;;19.75;;
209;SDS011;90;48.810;9.120;2023-03-01T00:40:51;44.90;;;19.00;;
209;SDS011;90;48.810;9.120;2023-03-01T00:43:28;43.22;;;21.45;;
209;SDS011;90;48.810;9.120;2023-03-01T00:45:57;43.67;;;20.45;;
209;SDS011;90;48.810;9.120;2023-03-01T00:48:28;46.50;;;20.60;;
209;SDS011;90;48.810;9.120;2023-03-01T00:50:56;45.53;;;21.15;;
209;SDS011;90;48.810;9.120;2023-03-01T00:53:30;50.78;;;22.30;;
209;SDS011;90;48.810;9.120;2023-03-01T00:55:57;48.95;;;21.52;;
209;SDS011;90;48.810;9.120;2023-03-01T00:58:29;41.90;;;21.05;;
209;SDS011;90;48.810;9.120;2023-03-01T01:00:58;44.65;;;20.85;;
209;SDS011;90;48.810;9.120;2023-03-01T01:03:31;44.15;;;21.08;;
209;SDS011;90;48.810;9.120;2023-03-01T01:06:03;46.35;;;21.80;;
209;SDS011;90;48.810;9.120;2023-03-01T01:08:34;46.08;;;21.92;;
209;SDS011;90;48.810;9.120;2023-03-01T01:11:03;47.00;;;20.30;;
209;SDS011;90;48.810;9.120;2023-03-01T01:13:32;48.28;;;21.23;;
209;SDS011;90;48.810;9.120;2023-03-01T01:16:06;43.70;;;20.45;;
209;SDS011;90;48.810;9.120;2023-03-01T01:18:39;42.15;;;19.42;;
209;SDS011;90;48.810;9.120;2023-03-01T01:21:23;42.78;;;20.08;;
209;SDS011;90;48.810;9.120;2023-03-01T01:24:10;44.78;;;20.60;;
209;SDS011;90;48.810;9.120;2023-03-01T01:26:38;43.10;;;21.17;;
209;SDS011;90;48.810;9.120;2023-03-01T01:29:07;51.97;;;22.48;;
209;SDS011;90;48.810;9.120;2023-03-01T01:31:35;45.50;;;21.25;;
209;SDS011;90;48.810;9.120;2023-03-01T01:34:04;48.53;;;21.25;;
209;SDS011;90;48.810;9.120;2023-03-01T01:36:33;45.78;;;21.38;;
209;SDS011;90;48.810;9.120;2023-03-01T01:39:01;45.22;;;20.58;;
209;SDS011;90;48.810;9.120;2023-03-01T01:41:29;42.42;;;21.10;;
209;SDS011;90;48.810;9.120;2023-03-01T01:44:11;40.53;;;20.08;;
209;SDS011;90;48.810;9.120;2023-03-01T01:46:44;40.35;;;20.00;;
209;SDS011;90;48.810;9.120;2023-03-01T01:49:19;45.03;;;21.17;;
209;SDS011;90;48.810;9.120;2023-03-01T01:51:55;46.00;;;21.55;;
209;SDS011;90;48.810;9.120;2023-03-01T01:54:27;50.03;;;23.45;;
209;SDS011;90;48.810;9.120;2023-03-01T01:56:58;45.67;;;21.33;;
209;SDS011;90;48.810;9.120;2023-03-01T01:59:32;46.22;;;20.80;;
209;SDS011;90;48.810;9.120;2023-03-01T02:02:03;50.25;;;22.30;;
209;SDS011;90;48.810;9.120;2023-03-01T02:04:32;49.33;;;21.05;;
209;SDS011;90;48.810;9.120;2023-03-01T02:07:03;46.92;;;21.88;;
209;SDS011;90;48.810;9.120;2023-03-01T02:09:37;45.63;;;22.33;;
209;SDS011;90;48.810;9.120;2023-03-01T02:12:05;53.72;;;23.58;;
209;SDS011;90;48.810;9.120;2023-03-01T02:14:41;48.80;;;21.85;;
209;SDS011;90;48.810;9.120;2023-03-01T02:17:10;51.13;;;21.33;;
209;SDS011;90;48.810;9.120;2023-03-01T02:19:48;51.00;;;21.55;;
209;SDS011;90;48.810;9.120;2023-03-01T02:22:40;47.35;;;21.95;;
209;SDS011;90;48.810;9.120;2023-03-01T02:25:32;48.58;;;21.80;;
209;SDS011;90;48.810;9.120;2023-03-01T02:28:22;52.80;;;23.08;;
209;SDS011;90;48.810;9.120;2023-03-01T02:30:51;42.90;;;21.50;;
209;SDS011;90;48.810;9.120;2023-03-01T02:33:38;55.20;;;22.50;;
209;SDS011;90;48.810;9.120;2023-03-01T02:36:10;48.70;;;21.48;;
209;SDS011;90;48.810;9.120;2023-03-01T02:38:44;49.33;;;22.50;;
209;SDS011;90;48.810;9.120;2023-03-01T02:41:13;47.15;;;21.95;;
209;SDS011;90;48.810;9.120;2023-03-01T02:43:44;51.70;;;22.05;;
209;SDS011;90;48.810;9.120;2023-03-01T02:46:14;42.78;;;19.88;;
209;SDS011;90;48.810;9.120;2023-03-01T02:48:47;54.60;;;23.52;;
209;SDS011;90;48.810;9.120;2023-03-01T02:51:25;43.90;;;22.00;;
209;SDS011;90;48.810;9.120;2023-03-01T02:54:12;50.83;;;20.75;;
209;SDS011;90;48.810;9.120;2023-03-01T02:56:47;45.22;;;21.95;;
209;SDS011;90;48.810;9.120;2023-03-01T02:59:20;42.45;;;20.27;;
209;SDS011;90;48.810;9.120;2023-03-01T03:01:54;45.42;;;21.95;;
209;SDS011;90;48.810;9.120;2023-03-01T03:04:26;46.92;;;21.55;;
209;SDS011;90;48.810;9.120;2023-03-01T03:06:57;48.42;;;23.20;;
209;SDS011;90;48.810;9.120;2023-03-01T03:09:24;51.80;;;22.83;;
209;SDS011;90;48.810;9.120;2023-03-01T03:11:55;47.95;;;21.58;;
209;SDS011;90;48.810;9.120;2023-03-01T03:14:28;48.10;;;21.08;;
209;SDS011;90;48.810;9.120;2023-03-01T03:17:08;52.92;;;21.75;;
209;SDS011;90;48.810;9.120;2023-03-01T03:19:40;46.95;;;22.15;;
209;SDS011;90;48.810;9.120;2023-03-01T03:22:12;47.88;;;21.90;;
209;SDS011;90;48.810;9.120;2023-03-01T03:24:40;44.53;;;20.60;;
209;SDS011;90;48.810;9.120;2023-03-01T03:27:13;50.53;;;23.27;;
209;SDS011;90;48.810;9.120;2023-03-01T03:29:42;46.03;;;21.52;;
209;SDS011;90;48.810;9.120;2023-03-01T03:32:10;48.22;;;21.90;;
209;SDS011;90;48.810;9.120;2023-03-01T03:34:37;49.50;;;22.58;;
209;SDS011;90;48.810;9.120;2023-03-01T03:37:04;46.95;;;20.60;;
209;SDS011;90;48.810;9.120;2023-03-01T03:39:51;44.13;;;21.40;;
209;SDS011;90;48.810;9.120;2023-03-01T03:42:20;46.67;;;22.65;;
209;SDS011;90;48.810;9.120;2023-03-01T03:44:49;48.72;;;22.45;;
209;SDS011;90;48.810;9.120;2023-03-01T03:47:16;52.00;;;22.63;;
209;SDS011;90;48.810;9.120;2023-03-01T03:49:44;49.60;;;22.38;;
209;SDS011;90;48.810;9.120;2023-03-01T03:52:11;46.33;;;22.27;;
209;SDS011;90;48.810;9.120;2023-03-01T03:54:39;49.75;;;22.40;;
209;SDS011;90;48.810;9.120;2023-03-01T03:57:07;46.97;;;20.83;;
209;SDS011;90;48.810;9.120;2023-03-01T03:59:36;53.00;;;21.88;;
209;SDS011;90;48.810;9.120;2023-03-01T04:02:05;48.22;;;22.73;;
209;SDS011;90;48.810;9.120;2023-03-01T04:04:34;45.58;;;21.48;;
209;SDS011;90;48.810;9.120;2023-03-01T04:07:02;48.22;;;22.55;;
209;SDS011;90;48.810;9.120;2023-03-01T04:09:30;51.30;;;22.55;;
209;SDS011;90;48.810;9.120;2023-03-01T04:11:57;49.85;;;21.75;;
209;SDS011;90;48.810;9.120;2023-03-01T04:14:27;43.33;;;21.85;;
209;SDS011;90;48.810;9.120;2023-03-01T04:16:55;41.88;;;21.00;;
209;SDS011;90;48.810;9.120;2023-03-01T04:19:24;55.30;;;22.40;;
209;SDS011;90;48.810;9.120;2023-03-01T04:21:52;52.08;;;21.83;;
209;SDS011;90;48.810;9.120;2023-03-01T04:24:22;45.50;;;22.55;;
209;SDS011;90;48.810;9.120;2023-03-01T04:26:49;46.80;;;21.45;;
209;SDS011;90;48.810;9.120;2023-03-01T04:29:17;47.63;;;22.05;;
209;SDS011;90;48.810;9.120;2023-03-01T04:31:44;42.90;;;20.85;;
209;SDS011;90;48.810;9.120;2023-03-01T04:34:11;51.08;;;22.73;;
209;SDS011;90;48.810;9.120;2023-03-01T04:36:40;50.88;;;22.38;;
209;SDS011;90;48.810;9.120;2023-03-01T04:39:08;45.47;;;21.55;;
209;SDS011;90;48.810;9.120;2023-03-01T04:41:37;44.33;;;21.38;;
209;SDS011;90;48.810;9.120;2023-03-01T04:44:05;45.92;;;21.67;;
209;SDS011;90;48.810;9.120;2023-03-01T04:46:34;52.30;;;22.13;;
209;SDS011;90;48.810;9.120;2023-03-01T04:49:02;49.72;;;23.42;;
209;SDS011;90;48.810;9.120;2023-03-01T04:51:30;46.67;;;22.60;;
209;SDS011;90;48.810;9.120;2023-03-01T04:53:59;48.45;;;23.30;;
209;SDS011;90;48.810;9.120;2023-03-01T04:56:26;47.80;;;23.13;;
209;SDS011;90;48.810;9.120;2023-03-01T04:58:53;49.33;;;23.95;;
209;SDS011;90;48.810;9.120;2023-03-01T05:01:21;54.80;;;23.23;;
209;SDS011;90;48.810;9.120;2023-03-01T05:03:48;50.17;;;23.10;;
209;SDS011;90;48.810;9.120;2023-03-01T05:06:17;50.92;;;23.20;;
209;SDS011;90;48.810;9.120;2023-03-01T05:08:45;47.83;;;22.25;;
209;SDS011;90;48.810;9.120;2023-03-01T05:11:13;44.42;;;22.42;;
209;SDS011;90;48.810;9.120;2023-03-01T05:13:41;44.65;;;21.58;;
209;SDS011;90;48.810;9.120;2023-03-01T05:16:08;47.65;;;22.05;;
209;SDS011;90;48.810;9.120;2023-03-01T05:18:37;49.28;;;22.25;;
209;SDS011;90;48.810;9.120;2023-03-01T05:21:05;47.08;;;22.50;;
209;SDS011;90;48.810;9.120;2023-03-01T05:23:34;50.60;;;22.90;;
209;SDS011;90;48.810;9.120;2023-03-01T05:26:03;46.92;;;22.58;;
209;SDS011;90;48.810;9.120;2023-03-01T05:28:33;48.70;;;22.95;;
209;SDS011;90;48.810;9.120;2023-03-01T05:31:00;45.25;;;22.00;;
209;SDS011;90;48.810;9.120;2023-03-01T05:33:27;52.95;;;23.67;;
209;SDS011;90;48.810;9.120;2023-03-01T05:35:54;49.80;;;23.08;;
209;SDS011;90;48.810;9.120;2023-03-01T05:38:26;44.88;;;21.98;;
209;SDS011;90;48.810;9.120;2023-03-01T05:40:56;48.83;;;22.15;;
209;SDS011;90;48.810;9.120;2023-03-01T05:43:24;47.45;;;22.00;;
209;SDS011;90;48.810;9.120;2023-03-01T05:45:52;51.53;;;23.63;;
209;SDS011;90;48.810;9.120;2023-03-01T05:48:19;60.70;;;24.65;;
209;SDS011;90;48.810;9.120;2023-03-01T05:50:48;48.88;;;23.30;;
209;SDS011;90;48.810;9.120;2023-03-01T05:53:15;50.42;;;22.80;;
209;SDS011;90;48.810;9.120;2023-03-01T05:58:31;55.45;;;24.20;;
209;SDS011;90;48.810;9.120;2023-03-01T06:01:00;51.97;;;22.65;;
209;SDS011;90;48.810;9.120;2023-03-01T06:03:27;53.65;;;22.77;;
209;SDS011;90;48.810;9.120;2023-03-01T06:05:55;51.47;;;22.52;;
209;SDS011;90;48.810;9.120;2023-03-01T06:08:22;51.65;;;23.73;;
209;SDS011;90;48.810;9.120;2023-03-01T06:10:52;50.33;;;22.73;;
209;SDS011;90;48.810;9.120;2023-03-01T06:13:19;57.13;;;22.73;;
209;SDS011;90;48.810;9.120;2023-03-01T06:15:46;55.92;;;23.55;;
209;SDS011;90;48.810;9.120;2023-03-01T06:18:15;49.45;;;22.58;;
209;SDS011;90;48.810;9.120;2023-03-01T06:20:52;46.35;;;21.80;;
209;SDS011;90;48.810;9.120;2023-03-01T06:23:20;53.08;;;22.77;;
209;SDS011;90;48.810;9.120;2023-03-01T06:25:47;53.88;;;23.45;;
209;SDS011;90;48.810;9.120;2023-03-01T06:28:14;47.15;;;22.90;;
209;SDS011;90;48.810;9.120;2023-03-01T06:30:41;55.35;;;23.38;;
209;SDS011;90;48.810;9.120;2023-03-01T06:33:08;55.30;;;23.10;;
209;SDS011;90;48.810;9.120;2023-03-01T06:35:37;51.17;;;23.13;;
209;SDS011;90;48.810;9.120;2023-03-01T06:38:04;53.85;;;23.42;;
209;SDS011;90;48.810;9.120;2023-03-01T06:40:34;47.92;;;22.88;;
209;SDS011;90;48.810;9.120;2023-03-01T06:43:01;46.55;;;21.52;;
209;SDS011;90;48.810;9.120;2023-03-01T06:45:28;48.80;;;23.08;;
209;SDS011;90;48.810;9.120;2023-03-01T06:51:01;49.83;;;22.40;;
209;SDS011;90;48.810;9.120;2023-03-01T06:53:49;50.63;;;23.77;;
209;SDS011;90;48.810;9.120;2023-03-01T06:59:39;53.17;;;23.27;;
209;SDS011;90;48.810;9.120;2023-03-01T07:02:18;57.28;;;24.35;;
209;SDS011;90;48.810;9.120;2023-03-01T07:12:04;54.55;;;23.50;;
209;SDS011;90;48.810;9.120;2023-03-01T07:14:53;52.15;;;24.10;;
209;SDS011;90;48.810;9.120;2023-03-01T07:18:05;56.70;;;23.50;;
209;SDS011;90;48.810;9.120;2023-03-01T07:20:41;51.60;;;24.05;;
209;SDS011;90;48.810;9.120;2023-03-01T07:23:51;54.08;;;24.52;;
209;SDS011;90;48.810;9.120;2023-03-01T07:26:23;48.05;;;22.83;;
209;SDS011;90;48.810;9.120;2023-03-01T07:45:32;53.35;;;23.17;;
209;SDS011;90;48.810;9.120;2023-03-01T07:48:32;51.92;;;23.48;;
209;SDS011;90;48.810;9.120;2023-03-01T07:55:36;56.15;;;24.33;;
209;SDS011;90;48.810;9.120;2023-03-01T08:50:14;55.75;;;24.75;;
209;SDS011;90;48.810;9.120;2023-03-01T08:52:41;59.63;;;25.20;;
209;SDS011;90;48.810;9.120;2023-03-01T08:55:09;50.88;;;24.02;;
209;SDS011;90;48.810;9.120;2023-03-01T08:57:36;49.28;;;24.08;;
209;SDS011;90;48.810;9.120;2023-03-01T09:00:04;52.45;;;24.38;;
209;SDS011;90;48.810;9.120;2023-03-01T09:02:34;51.53;;;22.85;;
209;SDS011;90;48.810;9.120;2023-03-01T09:05:04;52.97;;;24.27;;
209;SDS011;90;48.810;9.120;2023-03-01T09:07:33;53.80;;;24.30;;
209;SDS011;90;48.810;9.120;2023-03-01T09:11:55;52.15;;;23.02;;
209;SDS011;90;48.810;9.120;2023-03-01T09:13:55;45.13;;;20.88;;
209;SDS011;90;48.810;9.120;2023-03-01T09:19:52;55.92;;;24.35;;
209;SDS011;90;48.810;9.120;2023-03-01T09:22:21;52.35;;;24.02;;
209;SDS011;90;48.810;9.120;2023-03-01T09:25:02;55.53;;;24.00;;
209;SDS011;90;48.810;9.120;2023-03-01T09:27:33;55.65;;;23.45;;
209;SDS011;90;48.810;9.120;2023-03-01T09:30:05;58.10;;;24.85;;
209;SDS011;90;48.810;9.120;2023-03-01T09:32:34;49.17;;;23.60;;
209;SDS011;90;48.810;9.120;2023-03-01T09:35:03;53.08;;;24.20;;
209;SDS011;90;48.810;9.120;2023-03-01T09:37:34;57.38;;;25.27;;
209;SDS011;90;48.810;9.120;2023-03-01T09:43:55;53.22;;;24.65;;
209;SDS011;90;48.810;9.120;2023-03-01T09:49:37;53.55;;;23.60;;
209;SDS011;90;48.810;9.120;2023-03-01T09:55:16;54.67;;;24.00;;
209;SDS011;90;48.810;9.120;2023-03-01T10:10:44;48.05;;;23.08;;
209;SDS011;90;48.810;9.120;2023-03-01T10:13:17;56.38;;;23.05;;
209;SDS011;90;48.810;9.120;2023-03-01T10:19:08;47.08;;;23.30;;
209;SDS011;90;48.810;9.120;2023-03-01T10:32:11;52.13;;;23.77;;
209;SDS011;90;48.810;9.120;2023-03-01T10:34:47;52.50;;;24.45;;
209;SDS011;90;48.810;9.120;2023-03-01T10:37:19;53.92;;;23.80;;
209;SDS011;90;48.810;9.120;2023-03-01T10:40:04;51.75;;;23.85;;
209;SDS011;90;48.810;9.120;2023-03-01T10:42:34;53.30;;;23.55;;
209;SDS011;90;48.810;9.120;2023-03-01T10:45:17;50.60;;;23.30;;
209;SDS011;90;48.810;9.120;2023-03-01T10:48:14;51.85;;;23.15;;
209;SDS011;90;48.810;9.120;2023-03-01T10:50:44;42.70;;;20.77;;
209;SDS011;90;48.810;9.120;2023-03-01T10:53:30;47.83;;;22.70;;
209;SDS011;90;48.810;9.120;2023-03-01T10:56:07;49.00;;;23.08;;
209;SDS011;90;48.810;9.120;2023-03-01T10:58:41;45.45;;;22.42;;
209;SDS011;90;48.810;9.120;2023-03-01T11:01:46;52.10;;;23.23;;
209;SDS011;90;48.810;9.120;2023-03-01T11:05:07;50.55;;;23.90;;
209;SDS011;90;48.810;9.120;2023-03-01T11:07:58;42.72;;;21.83;;
209;SDS011;90;48.810;9.120;2023-03-01T11:11:59;48.60;;;23.02;;
209;SDS011;90;48.810;9.120;2023-03-01T11:14:51;44.05;;;21.27;;
209;SDS011;90;48.810;9.120;2023-03-01T11:17:29;45.53;;;20.92;;
209;SDS011;90;48.810;9.120;2023-03-01T12:14:19;39.80;;;18.60;;
209;SDS011;90;48.810;9.120;2023-03-01T12:20:12;35.57;;;18.63;;
209;SDS011;90;48.810;9.120;2023-03-01T12:26:18;39.77;;;19.00;;
209;SDS011;90;48.810;9.120;2023-03-01T12:29:02;41.63;;;19.20;;
209;SDS011;90;48.810;9.120;2023-03-01T12:31:56;37.07;;;18.67;;
209;SDS011;90;48.810;9.120;2023-03-01T12:34:52;37.67;;;18.50;;
209;SDS011;90;48.810;9.120;2023-03-01T12:37:37;34.80;;;19.07;;
209;SDS011;90;48.810;9.120;2023-03-01T12:40:31;41.88;;;20.20;;
209;SDS011;90;48.810;9.120;2023-03-01T12:43:09;40.47;;;19.13;;
209;SDS011;90;48.810;9.120;2023-03-01T12:46:06;40.03;;;19.60;;
209;SDS011;90;48.810;9.120;2023-03-01T12:48:46;38.43;;;18.00;;
209;SDS011;90;48.810;9.120;2023-03-01T12:51:42;33.00;;;17.57;;
209;SDS011;90;48.810;9.120;2023-03-01T13:26:07;40.90;;;19.67;;
209;SDS011;90;48.810;9.120;2023-03-01T13:29:11;40.30;;;19.70;;
209;SDS011;90;48.810;9.120;2023-03-01T13:31:58;38.20;;;18.60;;
209;SDS011;90;48.810;9.120;2023-03-01T13:34:51;41.50;;;19.40;;
209;SDS011;90;48.810;9.120;2023-03-01T13:37:34;39.40;;;18.83;;
209;SDS011;90;48.810;9.120;2023-03-01T13:40:04;37.53;;;18.80;;
209;SDS011;90;48.810;9.120;2023-03-01T13:42:55;35.27;;;18.10;;
209;SDS011;90;48.810;9.120;2023-03-01T13:45:34;40.40;;;19.93;;
209;SDS011;90;48.810;9.120;2023-03-01T13:48:09;42.50;;;19.53;;
209;SDS011;90;48.810;9.120;2023-03-01T13:50:53;37.73;;;19.27;;
209;SDS011;90;48.810;9.120;2023-03-01T13:53:24;39.40;;;18.87;;
209;SDS011;90;48.810;9.120;2023-03-01T13:56:01;40.53;;;20.07;;
209;SDS011;90;48.810;9.120;2023-03-01T14:01:56;38.30;;;20.50;;
209;SDS011;90;48.810;9.120;2023-03-01T14:04:44;42.20;;;20.35;;
209;SDS011;90;48.810;9.120;2023-03-01T14:07:28;41.97;;;20.20;;
209;SDS011;90;48.810;9.120;2023-03-01T14:26:49;40.10;;;18.73;;
209;SDS011;90;48.810;9.120;2023-03-01T14:30:03;41.83;;;19.33;;
209;SDS011;90;48.810;9.120;2023-03-01T14:40:36;47.03;;;22.57;;
209;SDS011;90;48.810;9.120;2023-03-01T14:43:13;48.17;;;21.93;;
209;SDS011;90;48.810;9.120;2023-03-01T14:45:59;49.70;;;20.67;;
209;SDS011;90;48.810;9.120;2023-03-01T14:48:48;41.50;;;20.77;;
209;SDS011;90;48.810;9.120;2023-03-01T14:51:20;47.80;;;22.27;;
209;SDS011;90;48.810;9.120;2023-03-01T14:56:28;41.10;;;21.17;;
209;SDS011;90;48.810;9.120;2023-03-01T14:59:33;49.90;;;21.40;;
209;SDS011;90;48.810;9.120;2023-03-01T15:02:08;41.83;;;20.97;;
209;SDS011;90;48.810;9.120;2023-03-01T15:07:19;47.73;;;23.33;;
209;SDS011;90;48.810;9.120;2023-03-01T15:10:31;43.23;;;20.93;;
209;SDS011;90;48.810;9.120;2023-03-01T15:29:03;42.23;;;21.00;;
209;SDS011;90;48.810;9.120;2023-03-01T15:34:31;47.40;;;21.90;;
209;SDS011;90;48.810;9.120;2023-03-01T15:40:48;44.43;;;21.13;;
209;SDS011;90;48.810;9.120;2023-03-01T15:46:20;44.10;;;19.97;;
209;SDS011;90;48.810;9.120;2023-03-01T15:49:05;46.23;;;20.00;;
209;SDS011;90;48.810;9.120;2023-03-01T15:52:26;41.00;;;20.40;;
209;SDS011;90;48.810;9.120;2023-03-01T15:54:56;27.23;;;11.43;;
209;SDS011;90;48.810;9.120;2023-03-01T15:57:26;27.67;;;14.00;;
209;SDS011;90;48.810;9.120;2023-03-01T15:59:53;31.93;;;14.93;;
209;SDS011;90;48.810;9.120;2023-03-01T16:02:21;26.83;;;13.80;;
209;SDS011;90;48.810;9.120;2023-03-01T16:04:49;28.10;;;14.30;;
209;SDS011;90;48.810;9.120;2023-03-01T16:07:16;28.70;;;13.70;;
209;SDS011;90;48.810;9.120;2023-03-01T16:09:43;29.03;;;14.43;;
209;SDS011;90;48.810;9.120;2023-03-01T16:12:11;26.57;;;14.80;;
209;SDS011;90;48.810;9.120;2023-03-01T16:14:42;28.60;;;14.77;;
209;SDS011;90;48.810;9.120;2023-03-01T16:17:09;28.40;;;14.93;;
209;SDS011;90;48.810;9.120;2023-03-01T16:19:36;29.37;;;15.20;;
209;SDS011;90;48.810;9.120;2023-03-01T16:22:04;26.37;;;14.70;;
209;SDS011;90;48.810;9.120;2023-03-01T16:24:31;29.50;;;14.47;;
209;SDS011;90;48.810;9.120;2023-03-01T16:26:58;29.77;;;16.23;;
209;SDS011;90;48.810;9.120;2023-03-01T16:29:25;21.57;;;13.43;;
209;SDS011;90;48.810;9.120;2023-03-01T16:31:55;24.60;;;14.13;;
209;SDS011;90;48.810;9.120;2023-03-01T16:34:27;33.80;;;17.97;;
209;SDS011;90;48.810;9.120;2023-03-01T16:37:01;41.43;;;20.50;;
209;SDS011;90;48.810;9.120;2023-03-01T16:39:28;35.63;;;18.60;;
209;SDS011;90;48.810;9.120;2023-03-01T16:41:55;46.30;;;21.43;;
209;SDS011;90;48.810;9.120;2023-03-01T16:44:26;36.50;;;19.33;;
209;SDS011;90;48.810;9.120;2023-03-01T16:46:59;37.90;;;19.20;;
209;SDS011;90;48.810;9.120;2023-03-01T16:49:27;43.57;;;19.53;;
209;SDS011;90;48.810;9.120;2023-03-01T16:51:54;36.57;;;18.87;;
209;SDS011;90;48.810;9.120;2023-03-01T16:54:23;39.40;;;19.83;;
209;SDS011;90;48.810;9.120;2023-03-01T16:56:55;43.13;;;19.90;;
209;SDS011;90;48.810;9.120;2023-03-01T16:59:30;37.07;;;18.97;;
209;SDS011;90;48.810;9.120;2023-03-01T17:01:59;37.90;;;20.00;;
209;SDS011;90;48.810;9.120;2023-03-01T17:04:27;41.40;;;19.67;;
209;SDS011;90;48.810;9.120;2023-03-01T17:06:54;41.73;;;20.40;;
209;SDS011;90;48.810;9.120;2023-03-01T17:09:21;41.87;;;20.17;;
209;SDS011;90;48.810;9.120;2023-03-01T17:11:48;40.33;;;19.17;;
209;SDS011;90;48.810;9.120;2023-03-01T17:14:15;40.93;;;19.03;;
209;SDS011;90;48.810;9.120;2023-03-01T17:16:43;42.40;;;21.03;;
209;SDS011;90;48.810;9.120;2023-03-01T17:19:14;42.03;;;20.77;;
209;SDS011;90;48.810;9.120;2023-03-01T17:21:42;46.50;;;21.13;;
209;SDS011;90;48.810;9.120;2023-03-01T17:24:09;51.87;;;20.13;;
209;SDS011;90;48.810;9.120;2023-03-01T17:26:37;41.83;;;19.57;;
209;SDS011;90;48.810;9.120;2023-03-01T17:29:04;46.23;;;19.80;;
209;SDS011;90;48.810;9.120;2023-03-01T17:31:32;41.60;;;20.70;;
209;SDS011;90;48.810;9.120;2023-03-01T17:33:59;45.30;;;21.37;;
209;SDS011;90;48.810;9.120;2023-03-01T17:36:28;44.83;;;20.57;;
209;SDS011;90;48.810;9.120;2023-03-01T17:38:55;42.30;;;20.70;;
209;SDS011;90;48.810;9.120;2023-03-01T17:41:22;40.90;;;20.97;;
209;SDS011;90;48.810;9.120;2023-03-01T17:43:49;44.57;;;21.40;;
209;SDS011;90;48.810;9.120;2023-03-01T17:46:16;44.23;;;20.30;;
209;SDS011;90;48.810;9.120;2023-03-01T17:48:43;44.93;;;20.30;;
209;SDS011;90;48.810;9.120;2023-03-01T17:51:11;41.63;;;20.33;;
209;SDS011;90;48.810;9.120;2023-03-01T17:53:39;39.10;;;19.07;;
209;SDS011;90;48.810;9.120;2023-03-01T17:56:06;43.80;;;20.33;;
209;SDS011;90;48.810;9.120;2023-03-01T17:58:34;44.38;;;20.48;;
209;SDS011;90;48.810;9.120;2023-03-01T18:01:06;44.83;;;21.45;;
209;SDS011;90;48.810;9.120;2023-03-01T18:03:34;45.55;;;20.45;;
209;SDS011;90;48.810;9.120;2023-03-01T18:06:02;46.38;;;21.27;;
209;SDS011;90;48.810;9.120;2023-03-01T18:08:35;42.90;;;21.23;;
209;SDS011;90;48.810;9.120;2023-03-01T18:11:04;48.22;;;21.33;;
209;SDS011;90;48.810;9.120;2023-03-01T18:13:32;46.78;;;21.58;;
209;SDS011;90;48.810;9.120;2023-03-01T18:15:59;43.83;;;20.73;;
209;SDS011;90;48.810;9.120;2023-03-01T18:18:29;45.00;;;21.33;;
209;SDS011;90;48.810;9.120;2023-03-01T18:20:56;43.45;;;21.50;;
209;SDS011;90;48.810;9.120;2023-03-01T18:23:24;47.40;;;21.10;;
209;SDS011;90;48.810;9.120;2023-03-01T18:25:51;45.53;;;22.75;;
209;SDS011;90;48.810;9.120;2023-03-01T18:28:24;45.28;;;20.50;;
209;SDS011;90;48.810;9.120;2023-03-01T18:30:54;48.25;;;21.77;;
209;SDS011;90;48.810;9.120;2023-03-01T18:33:22;41.17;;;20.65;;
209;SDS011;90;48.810;9.120;2023-03-01T18:35:50;42.30;;;19.55;;
209;SDS011;90;48.810;9.120;2023-03-01T18:38:17;47.42;;;20.85;;
209;SDS011;90;48.810;9.120;2023-03-01T18:40:44;43.75;;;20.67;;
209;SDS011;90;48.810;9.120;2023-03-01T18:43:11;42.47;;;18.88;;
209;SDS011;90;48.810;9.120;2023-03-01T18:45:40;41.78;;;20.05;;
209;SDS011;90;48.810;9.120;2023-03-01T18:48:09;46.90;;;21.52;;
209;SDS011;90;48.810;9.120;2023-03-01T18:50:37;50.33;;;22.15;;
209;SDS011;90;48.810;9.120;2023-03-01T18:53:07;53.65;;;21.95;;
209;SDS011;90;48.810;9.120;2023-03-01T18:55:35;43.83;;;21.48;;
209;SDS011;90;48.810;9.120;2023-03-01T18:58:03;44.45;;;19.95;;
209;SDS011;90;48.810;9.120;2023-03-01T19:00:30;42.30;;;20.33;;
209;SDS011;90;48.810;9.120;2023-03-01T19:02:59;49.05;;;22.45;;
209;SDS011;90;48.810;9.120;2023-03-01T19:05:26;49.95;;;21.70;;
209;SDS011;90;48.810;9.120;2023-03-01T19:07:54;52.42;;;20.25;;
209;SDS011;90;48.810;9.120;2023-03-01T19:10:21;49.80;;;20.20;;
209;SDS011;90;48.810;9.120;2023-03-01T19:12:48;44.85;;;19.38;;
209;SDS011;90;48.810;9.120;2023-03-01T19:15:16;39.47;;;19.90;;
209;SDS011;90;48.810;9.120;2023-03-01T19:17:43;45.17;;;21.38;;
209;SDS011;90;48.810;9.120;2023-03-01T19:20:12;51.03;;;22.05;;
209;SDS011;90;48.810;9.120;2023-03-01T19:22:39;46.38;;;21.10;;
209;SDS011;90;48.810;9.120;2023-03-01T19:25:06;47.10;;;20.58;;
209;SDS011;90;48.810;9.120;2023-03-01T19:27:36;46.47;;;20.30;;
209;SDS011;90;48.810;9.120;2023-03-01T19:30:03;47.58;;;21.15;;
209;SDS011;90;48.810;9.120;2023-03-01T19:32:32;49.83;;;20.70;;
209;SDS011;90;48.810;9.120;2023-03-01T19:34:59;44.08;;;21.52;;
209;SDS011;90;48.810;9.120;2023-03-01T19:37:28;46.85;;;21.45;;
209;SDS011;90;48.810;9.120;2023-03-01T19:39:56;48.45;;;21.77;;
209;SDS011;90;48.810;9.120;2023-03-01T19:42:23;48.17;;;21.08;;
209;SDS011;90;48.810;9.120;2023-03-01T19:44:52;48.80;;;21.88;;
209;SDS011;90;48.810;9.120;2023-03-01T19:47:19;48.75;;;20.60;;
209;SDS011;90;48.810;9.120;2023-03-01T19:49:46;46.55;;;21.00;;
209;SDS011;90;48.810;9.120;2023-03-01T19:52:13;49.20;;;21.40;;
209;SDS011;90;48.810;9.120;2023-03-01T19:54:42;58.00;;;24.13;;
209;SDS011;90;48.810;9.120;2023-03-01T19:57:10;56.63;;;24.67;;
209;SDS011;90;48.810;9.120;2023-03-01T19:59:37;53.45;;;23.30;;
209;SDS011;90;48.810;9.120;2023-03-01T20:02:04;51.95;;;22.05;;
209;SDS011;90;48.810;9.120;2023-03-01T20:04:32;46.40;;;22.05;;
209;SDS011;90;48.810;9.120;2023-03-01T20:06:59;51.83;;;21.98;;
209;SDS011;90;48.810;9.120;2023-03-01T20:09:26;48.60;;;22.27;;
209;SDS011;90;48.810;9.120;2023-03-01T20:11:54;57.35;;;22.52;;
209;SDS011;90;48.810;9.120;2023-03-01T20:14:21;56.40;;;23.55;;
209;SDS011;90;48.810;9.120;2023-03-01T20:16:48;54.60;;;23.92;;
209;SDS011;90;48.810;9.120;2023-03-01T20:19:15;55.03;;;23.05;;
209;SDS011;90;48.810;9.120;2023-03-01T20:21:42;48.75;;;21.20;;
209;SDS011;90;48.810;9.120;2023-03-01T20:24:09;52.45;;;20.90;;
209;SDS011;90;48.810;9.120;2023-03-01T20:26:38;44.75;;;21.30;;
209;SDS011;90;48.810;9.120;2023-03-01T20:29:07;46.08;;;21.13;;
209;SDS011;90;48.810;9.120;2023-03-01T20:31:35;47.95;;;20.67;;
209;SDS011;90;48.810;9.120;2023-03-01T20:34:03;48.92;;;21.15;;
209;SDS011;90;48.810;9.120;2023-03-01T20:36:30;50.63;;;22.25;;
209;SDS011;90;48.810;9.120;2023-03-01T20:38:57;49.05;;;22.13;;
209;SDS011;90;48.810;9.120;2023-03-01T20:41:24;46.83;;;20.33;;
209;SDS011;90;48.810;9.120;2023-03-01T20:43:53;49.30;;;22.02;;
209;SDS011;90;48.810;9.120;2023-03-01T20:46:24;51.15;;;22.35;;